sensor_id;sensor_type;location;lat;lon;timestamp;P1;durP1;ratioP1;P2;durP2;ratioP2
2129;SDS011;1071;52.544;13.374;2023-01-26T00:02:11;19.75;;;12.65;;
2129;SDS011;1071;52.544;13.374;2023-01-26T00:04:41;22.00;;;15.02;;
2129;SDS011;1071;52.544;13.374;2023-01-26T00:07:10;23.52;;;14.93;;
2129;SDS011;1071;52.544;13.374;2023-01-26T00:09:37;14.85;;;10.65;;
2129;SDS011;1071;52.544;13.374;2023-01-26T00:15:22;21.90;;;13.23;;
2129;SDS011;1071;52.544;13.374;2023-01-26T00:17:49;15.45;;;10.85;;
2129;SDS011;1071;52.544;13.374;2023-01-26T00:20:18;17.65;;;12.70;;
2129;SDS011;1071;52.544;13.374;2023-01-26T00:22:47;17.02;;;11.80;;
2129;SDS011;1071;52.544;13.374;2023-01-26T00:25:14;17.80;;;12.27;;
2129;SDS011;1071;52.544;13.374;2023-01-26T00:27:41;19.52;;;13.15;;
2129;SDS011;1071;52.544;13.374;2023-01-26T00:32:45;22.55;;;12.65;;
2129;SDS011;1071;52.544;13.374;2023-01-26T00:35:12;19.08;;;12.60;;
2129;SDS011;1071;52.544;13.374;2023-01-26T00:37:41;24.20;;;14.88;;
2129;SDS011;1071;52.544;13.374;2023-01-26T00:40:09;20.58;;;13.60;;
2129;SDS011;1071;52.544;13.374;2023-01-26T00:42:41;18.10;;;12.18;;
2129;SDS011;1071;52.544;13.374;2023-01-26T00:45:22;17.70;;;11.70;;
2129;SDS011;1071;52.544;13.374;2023-01-26T00:47:49;20.10;;;13.43;;
2129;SDS011;1071;52.544;13.374;2023-01-26T00:50:16;23.80;;;14.30;;
2129;SDS011;1071;52.544;13.374;2023-01-26T00:52:46;19.70;;;13.50;;
2129;SDS011;1071;52.544;13.374;2023-01-26T00:55:16;21.55;;;12.55;;
2129;SDS011;1071;52.544;13.374;2023-01-26T00:57:44;16.92;;;12.27;;
2129;SDS011;1071;52.544;13.374;2023-01-26T01:00:11;26.35;;;14.13;;
2129;SDS011;1071;52.544;13.374;2023-01-26T01:02:41;20.67;;;13.90;;
2129;SDS011;1071;52.544;13.374;2023-01-26T01:05:11;23.55;;;14.90;;
2129;SDS011;1071;52.544;13.374;2023-01-26T01:07:39;18.65;;;13.98;;
2129;SDS011;1071;52.544;13.374;2023-01-26T01:10:10;20.80;;;13.50;;
2129;SDS011;1071;52.544;13.374;2023-01-26T01:12:40;25.88;;;16.55;;
2129;SDS011;1071;52.544;13.374;2023-01-26T01:15:14;25.88;;;14.55;;
2129;SDS011;1071;52.544;13.374;2023-01-26T01:17:42;24.00;;;13.70;;
2129;SDS011;1071;52.544;13.374;2023-01-26T01:20:10;25.08;;;14.60;;
2129;SDS011;1071;52.544;13.374;2023-01-26T01:22:37;26.27;;;15.63;;
2129;SDS011;1071;52.544;13.374;2023-01-26T01:25:05;27.48;;;13.30;;
2129;SDS011;1071;52.544;13.374;2023-01-26T01:27:35;21.88;;;14.57;;
2129;SDS011;1071;52.544;13.374;2023-01-26T01:30:03;21.98;;;13.80;;
2129;SDS011;1071;52.544;13.374;2023-01-26T01:32:32;22.02;;;13.32;;
2129;SDS011;1071;52.544;13.374;2023-01-26T01:35:01;23.80;;;17.02;;
2129;SDS011;1071;52.544;13.374;2023-01-26T01:37:28;24.13;;;13.25;;
2129;SDS011;1071;52.544;13.374;2023-01-26T01:39:58;23.40;;;14.85;;
2129;SDS011;1071;52.544;13.374;2023-01-26T01:42:25;28.50;;;15.85;;
2129;SDS011;1071;52.544;13.374;2023-01-26T01:48:02;25.90;;;16.52;;
2129;SDS011;1071;52.544;13.374;2023-01-26T01:50:41;26.25;;;14.63;;
2129;SDS011;1071;52.544;13.374;2023-01-26T01:53:13;25.45;;;15.52;;
2129;SDS011;1071;52.544;13.374;2023-01-26T01:55:51;21.88;;;15.52;;
2129;SDS011;1071;52.544;13.374;2023-01-26T01:58:20;22.80;;;14.25;;
2129;SDS011;1071;52.544;13.374;2023-01-26T02:00:50;21.73;;;13.40;;
2129;SDS011;1071;52.544;13.374;2023-01-26T02:03:18;26.70;;;16.02;;
2129;SDS011;1071;52.544;13.374;2023-01-26T02:06:02;29.30;;;16.67;;
2129;SDS011;1071;52.544;13.374;2023-01-26T02:08:35;28.63;;;14.15;;
2129;SDS011;1071;52.544;13.374;2023-01-26T02:11:06;22.60;;;14.20;;
2129;SDS011;1071;52.544;13.374;2023-01-26T02:13:36;20.30;;;13.35;;
2129;SDS011;1071;52.544;13.374;2023-01-26T02:19:25;16.92;;;12.10;;
2129;SDS011;1071;52.544;13.374;2023-01-26T02:22:00;23.77;;;12.98;;
2129;SDS011;1071;52.544;13.374;2023-01-26T02:24:38;23.63;;;13.80;;
2129;SDS011;1071;52.544;13.374;2023-01-26T02:27:08;20.63;;;13.30;;
2129;SDS011;1071;52.544;13.374;2023-01-26T02:29:40;16.70;;;11.82;;
2129;SDS011;1071;52.544;13.374;2023-01-26T02:32:07;24.20;;;14.57;;
2129;SDS011;1071;52.544;13.374;2023-01-26T02:34:35;22.45;;;13.55;;
2129;SDS011;1071;52.544;13.374;2023-01-26T02:37:11;28.33;;;15.75;;
2129;SDS011;1071;52.544;13.374;2023-01-26T02:39:42;22.20;;;14.30;;
2129;SDS011;1071;52.544;13.374;2023-01-26T02:42:21;20.30;;;14.88;;
2129;SDS011;1071;52.544;13.374;2023-01-26T02:45:09;23.85;;;16.25;;
2129;SDS011;1071;52.544;13.374;2023-01-26T02:47:40;21.08;;;13.38;;
2129;SDS011;1071;52.544;13.374;2023-01-26T02:50:09;19.83;;;14.93;;
2129;SDS011;1071;52.544;13.374;2023-01-26T02:52:41;22.38;;;12.93;;
2129;SDS011;1071;52.544;13.374;2023-01-26T02:55:11;18.00;;;13.60;;
2129;SDS011;1071;52.544;13.374;2023-01-26T02:57:58;24.17;;;14.43;;
2129;SDS011;1071;52.544;13.374;2023-01-26T03:00:29;20.00;;;12.43;;
2129;SDS011;1071;52.544;13.374;2023-01-26T03:02:59;25.45;;;16.10;;
2129;SDS011;1071;52.544;13.374;2023-01-26T03:05:28;27.58;;;15.05;;
2129;SDS011;1071;52.544;13.374;2023-01-26T03:07:55;22.63;;;14.40;;
2129;SDS011;1071;52.544;13.374;2023-01-26T03:10:22;27.95;;;16.15;;
2129;SDS011;1071;52.544;13.374;2023-01-26T03:12:51;24.48;;;14.20;;
2129;SDS011;1071;52.544;13.374;2023-01-26T03:15:29;23.98;;;14.82;;
2129;SDS011;1071;52.544;13.374;2023-01-26T03:18:16;20.45;;;13.80;;
2129;SDS011;1071;52.544;13.374;2023-01-26T03:21:02;23.50;;;14.18;;
2129;SDS011;1071;52.544;13.374;2023-01-26T03:23:48;27.15;;;13.93;;
2129;SDS011;1071;52.544;13.374;2023-01-26T03:26:33;21.63;;;12.70;;
2129;SDS011;1071;52.544;13.374;2023-01-26T03:29:17;18.05;;;13.20;;
2129;SDS011;1071;52.544;13.374;2023-01-26T03:31:46;21.42;;;12.75;;
2129;SDS011;1071;52.544;13.374;2023-01-26T03:34:14;19.48;;;12.88;;
2129;SDS011;1071;52.544;13.374;2023-01-26T03:36:41;18.75;;;11.48;;
2129;SDS011;1071;52.544;13.374;2023-01-26T03:39:08;17.77;;;11.82;;
2129;SDS011;1071;52.544;13.374;2023-01-26T03:41:55;14.38;;;11.50;;
2129;SDS011;1071;52.544;13.374;2023-01-26T03:44:42;16.05;;;11.20;;
2129;SDS011;1071;52.544;13.374;2023-01-26T03:47:27;19.92;;;12.05;;
2129;SDS011;1071;52.544;13.374;2023-01-26T03:50:14;17.10;;;11.10;;
2129;SDS011;1071;52.544;13.374;2023-01-26T03:52:58;14.07;;;10.88;;
2129;SDS011;1071;52.544;13.374;2023-01-26T03:55:43;16.23;;;12.13;;
2129;SDS011;1071;52.544;13.374;2023-01-26T03:58:29;17.77;;;11.27;;
2129;SDS011;1071;52.544;13.374;2023-01-26T04:00:56;19.25;;;12.88;;
2129;SDS011;1071;52.544;13.374;2023-01-26T04:03:25;15.52;;;11.07;;
2129;SDS011;1071;52.544;13.374;2023-01-26T04:06:09;16.88;;;11.00;;
2129;SDS011;1071;52.544;13.374;2023-01-26T04:08:53;21.77;;;11.55;;
2129;SDS011;1071;52.544;13.374;2023-01-26T04:11:20;17.20;;;10.23;;
2129;SDS011;1071;52.544;13.374;2023-01-26T04:13:48;20.75;;;13.27;;
2129;SDS011;1071;52.544;13.374;2023-01-26T04:16:32;18.50;;;12.48;;
2129;SDS011;1071;52.544;13.374;2023-01-26T04:19:17;16.85;;;10.95;;
2129;SDS011;1071;52.544;13.374;2023-01-26T04:22:01;16.25;;;11.23;;
2129;SDS011;1071;52.544;13.374;2023-01-26T04:24:28;14.07;;;10.27;;
2129;SDS011;1071;52.544;13.374;2023-01-26T04:26:55;19.75;;;13.10;;
2129;SDS011;1071;52.544;13.374;2023-01-26T04:29:22;15.20;;;11.23;;
2129;SDS011;1071;52.544;13.374;2023-01-26T04:31:51;15.13;;;11.30;;
2129;SDS011;1071;52.544;13.374;2023-01-26T04:34:20;17.60;;;12.35;;
2129;SDS011;1071;52.544;13.374;2023-01-26T04:36:47;20.27;;;13.40;;
2129;SDS011;1071;52.544;13.374;2023-01-26T04:39:14;15.98;;;12.02;;
2129;SDS011;1071;52.544;13.374;2023-01-26T04:41:41;13.63;;;11.35;;
2129;SDS011;1071;52.544;13.374;2023-01-26T04:44:08;14.48;;;11.18;;
2129;SDS011;1071;52.544;13.374;2023-01-26T04:46:36;16.00;;;11.10;;
2129;SDS011;1071;52.544;13.374;2023-01-26T04:49:03;18.58;;;12.95;;
2129;SDS011;1071;52.544;13.374;2023-01-26T04:51:32;20.67;;;11.98;;
2129;SDS011;1071;52.544;13.374;2023-01-26T04:53:59;17.75;;;11.80;;
2129;SDS011;1071;52.544;13.374;2023-01-26T04:56:28;15.68;;;11.50;;
2129;SDS011;1071;52.544;13.374;2023-01-26T04:58:57;18.30;;;12.65;;
2129;SDS011;1071;52.544;13.374;2023-01-26T05:01:25;20.55;;;11.65;;
2129;SDS011;1071;52.544;13.374;2023-01-26T05:03:53;19.65;;;10.68;;
2129;SDS011;1071;52.544;13.374;2023-01-26T05:06:20;18.60;;;11.70;;
2129;SDS011;1071;52.544;13.374;2023-01-26T05:08:49;16.48;;;11.27;;
2129;SDS011;1071;52.544;13.374;2023-01-26T05:11:16;22.60;;;13.43;;
2129;SDS011;1071;52.544;13.374;2023-01-26T05:13:45;16.45;;;11.35;;
2129;SDS011;1071;52.544;13.374;2023-01-26T05:16:13;20.30;;;12.05;;
2129;SDS011;1071;52.544;13.374;2023-01-26T05:18:40;20.45;;;12.48;;
2129;SDS011;1071;52.544;13.374;2023-01-26T05:21:11;17.35;;;11.63;;
2129;SDS011;1071;52.544;13.374;2023-01-26T05:23:41;17.35;;;11.63;;
2129;SDS011;1071;52.544;13.374;2023-01-26T05:26:09;20.10;;;11.35;;
2129;SDS011;1071;52.544;13.374;2023-01-26T05:28:36;16.52;;;11.02;;
2129;SDS011;1071;52.544;13.374;2023-01-26T05:31:03;14.52;;;10.55;;
2129;SDS011;1071;52.544;13.374;2023-01-26T05:33:31;18.40;;;11.52;;
2129;SDS011;1071;52.544;13.374;2023-01-26T05:36:02;18.80;;;11.68;;
2129;SDS011;1071;52.544;13.374;2023-01-26T05:38:29;18.63;;;11.93;;
2129;SDS011;1071;52.544;13.374;2023-01-26T05:40:57;14.95;;;10.27;;
2129;SDS011;1071;52.544;13.374;2023-01-26T05:43:26;16.10;;;10.15;;
2129;SDS011;1071;52.544;13.374;2023-01-26T05:45:54;16.75;;;10.20;;
2129;SDS011;1071;52.544;13.374;2023-01-26T05:48:21;16.92;;;10.00;;
2129;SDS011;1071;52.544;13.374;2023-01-26T05:50:49;17.02;;;10.60;;
2129;SDS011;1071;52.544;13.374;2023-01-26T05:53:22;16.98;;;10.13;;
2129;SDS011;1071;52.544;13.374;2023-01-26T05:55:49;16.50;;;9.90;;
2129;SDS011;1071;52.544;13.374;2023-01-26T05:58:16;15.93;;;10.70;;
2129;SDS011;1071;52.544;13.374;2023-01-26T06:00:44;21.92;;;10.70;;
2129;SDS011;1071;52.544;13.374;2023-01-26T06:03:13;16.50;;;11.85;;
2129;SDS011;1071;52.544;13.374;2023-01-26T06:05:40;18.08;;;11.85;;
2129;SDS011;1071;52.544;13.374;2023-01-26T06:08:07;12.10;;;9.13;;
2129;SDS011;1071;52.544;13.374;2023-01-26T06:10:34;18.23;;;11.52;;
2129;SDS011;1071;52.544;13.374;2023-01-26T06:13:03;17.40;;;11.27;;
2129;SDS011;1071;52.544;13.374;2023-01-26T06:15:31;17.27;;;11.95;;
2129;SDS011;1071;52.544;13.374;2023-01-26T06:18:00;21.83;;;12.05;;
2129;SDS011;1071;52.544;13.374;2023-01-26T06:20:27;16.92;;;11.38;;
2129;SDS011;1071;52.544;13.374;2023-01-26T06:22:57;16.25;;;10.73;;
2129;SDS011;1071;52.544;13.374;2023-01-26T06:25:25;16.55;;;11.05;;
2129;SDS011;1071;52.544;13.374;2023-01-26T06:27:55;18.95;;;12.77;;
2129;SDS011;1071;52.544;13.374;2023-01-26T06:30:22;14.80;;;10.57;;
2129;SDS011;1071;52.544;13.374;2023-01-26T06:32:52;17.73;;;10.45;;
2129;SDS011;1071;52.544;13.374;2023-01-26T06:35:24;15.20;;;10.13;;
2129;SDS011;1071;52.544;13.374;2023-01-26T06:38:07;16.50;;;10.73;;
2129;SDS011;1071;52.544;13.374;2023-01-26T06:40:34;17.73;;;11.35;;
2129;SDS011;1071;52.544;13.374;2023-01-26T06:43:01;21.42;;;10.43;;
2129;SDS011;1071;52.544;13.374;2023-01-26T06:45:37;15.57;;;9.85;;
2129;SDS011;1071;52.544;13.374;2023-01-26T06:48:06;17.95;;;10.68;;
2129;SDS011;1071;52.544;13.374;2023-01-26T06:50:37;17.30;;;10.35;;
2129;SDS011;1071;52.544;13.374;2023-01-26T06:53:20;17.58;;;10.27;;
2129;SDS011;1071;52.544;13.374;2023-01-26T06:55:52;14.48;;;9.27;;
2129;SDS011;1071;52.544;13.374;2023-01-26T06:58:19;16.15;;;10.30;;
2129;SDS011;1071;52.544;13.374;2023-01-26T07:00:48;14.45;;;10.07;;
2129;SDS011;1071;52.544;13.374;2023-01-26T07:03:17;13.25;;;8.55;;
2129;SDS011;1071;52.544;13.374;2023-01-26T07:05:46;17.75;;;10.90;;
2129;SDS011;1071;52.544;13.374;2023-01-26T07:08:14;17.45;;;10.65;;
2129;SDS011;1071;52.544;13.374;2023-01-26T07:10:41;15.10;;;11.20;;
2129;SDS011;1071;52.544;13.374;2023-01-26T07:13:08;17.23;;;11.25;;
2129;SDS011;1071;52.544;13.374;2023-01-26T07:15:35;16.70;;;11.95;;
2129;SDS011;1071;52.544;13.374;2023-01-26T07:18:02;18.75;;;11.75;;
2129;SDS011;1071;52.544;13.374;2023-01-26T07:20:29;20.83;;;9.85;;
2129;SDS011;1071;52.544;13.374;2023-01-26T07:23:01;18.20;;;11.35;;
2129;SDS011;1071;52.544;13.374;2023-01-26T07:25:28;20.92;;;12.98;;
2129;SDS011;1071;52.544;13.374;2023-01-26T07:27:55;21.02;;;13.68;;
2129;SDS011;1071;52.544;13.374;2023-01-26T07:30:25;16.70;;;11.25;;
2129;SDS011;1071;52.544;13.374;2023-01-26T07:32:59;22.00;;;12.73;;
2129;SDS011;1071;52.544;13.374;2023-01-26T07:35:29;19.08;;;11.57;;
2129;SDS011;1071;52.544;13.374;2023-01-26T07:37:56;18.45;;;12.55;;
2129;SDS011;1071;52.544;13.374;2023-01-26T07:40:24;18.50;;;11.25;;
2129;SDS011;1071;52.544;13.374;2023-01-26T07:42:51;14.30;;;9.98;;
2129;SDS011;1071;52.544;13.374;2023-01-26T07:45:21;14.20;;;8.50;;
2129;SDS011;1071;52.544;13.374;2023-01-26T07:47:48;16.15;;;10.07;;
2129;SDS011;1071;52.544;13.374;2023-01-26T07:50:20;15.70;;;10.80;;
2129;SDS011;1071;52.544;13.374;2023-01-26T07:52:47;17.65;;;12.00;;
2129;SDS011;1071;52.544;13.374;2023-01-26T07:55:16;12.38;;;8.45;;
2129;SDS011;1071;52.544;13.374;2023-01-26T07:57:46;12.18;;;8.00;;
2129;SDS011;1071;52.544;13.374;2023-01-26T08:00:13;11.68;;;8.13;;
2129;SDS011;1071;52.544;13.374;2023-01-26T08:02:41;12.95;;;8.07;;
2129;SDS011;1071;52.544;13.374;2023-01-26T08:05:12;13.23;;;8.93;;
2129;SDS011;1071;52.544;13.374;2023-01-26T08:07:40;12.57;;;9.38;;
2129;SDS011;1071;52.544;13.374;2023-01-26T08:10:16;13.98;;;9.60;;
2129;SDS011;1071;52.544;13.374;2023-01-26T08:12:43;17.20;;;9.38;;
2129;SDS011;1071;52.544;13.374;2023-01-26T08:15:15;12.38;;;8.27;;
2129;SDS011;1071;52.544;13.374;2023-01-26T08:17:42;14.15;;;7.72;;
2129;SDS011;1071;52.544;13.374;2023-01-26T08:20:10;14.35;;;9.63;;
2129;SDS011;1071;52.544;13.374;2023-01-26T08:22:38;9.95;;;8.30;;
2129;SDS011;1071;52.544;13.374;2023-01-26T08:25:05;14.25;;;10.55;;
2129;SDS011;1071;52.544;13.374;2023-01-26T08:27:33;15.18;;;11.00;;
2129;SDS011;1071;52.544;13.374;2023-01-26T08:30:03;22.60;;;12.38;;
2129;SDS011;1071;52.544;13.374;2023-01-26T08:32:30;16.83;;;11.43;;
2129;SDS011;1071;52.544;13.374;2023-01-26T08:35:00;20.10;;;12.43;;
2129;SDS011;1071;52.544;13.374;2023-01-26T08:37:30;13.90;;;10.60;;
2129;SDS011;1071;52.544;13.374;2023-01-26T08:40:03;12.88;;;9.65;;
2129;SDS011;1071;52.544;13.374;2023-01-26T08:42:31;13.55;;;10.10;;
2129;SDS011;1071;52.544;13.374;2023-01-26T08:44:59;10.32;;;7.18;;
2129;SDS011;1071;52.544;13.374;2023-01-26T08:47:27;12.52;;;9.35;;
2129;SDS011;1071;52.544;13.374;2023-01-26T08:49:56;13.02;;;8.90;;
2129;SDS011;1071;52.544;13.374;2023-01-26T08:52:23;12.82;;;9.05;;
2129;SDS011;1071;52.544;13.374;2023-01-26T08:54:50;13.25;;;7.30;;
2129;SDS011;1071;52.544;13.374;2023-01-26T08:57:26;8.05;;;6.25;;
2129;SDS011;1071;52.544;13.374;2023-01-26T09:00:15;9.65;;;8.05;;
2129;SDS011;1071;52.544;13.374;2023-01-26T09:02:46;9.80;;;7.28;;
2129;SDS011;1071;52.544;13.374;2023-01-26T09:05:25;9.55;;;8.05;;
2129;SDS011;1071;52.544;13.374;2023-01-26T09:07:52;9.82;;;8.32;;
2129;SDS011;1071;52.544;13.374;2023-01-26T09:10:19;14.00;;;7.85;;
2129;SDS011;1071;52.544;13.374;2023-01-26T09:12:59;10.00;;;6.93;;
2129;SDS011;1071;52.544;13.374;2023-01-26T09:15:26;11.27;;;8.68;;
2129;SDS011;1071;52.544;13.374;2023-01-26T09:17:56;10.75;;;9.10;;
2129;SDS011;1071;52.544;13.374;2023-01-26T09:20:23;9.77;;;8.18;;
2129;SDS011;1071;52.544;13.374;2023-01-26T09:22:51;9.40;;;7.60;;
2129;SDS011;1071;52.544;13.374;2023-01-26T09:25:21;10.63;;;7.95;;
2129;SDS011;1071;52.544;13.374;2023-01-26T09:27:48;11.35;;;9.07;;
2129;SDS011;1071;52.544;13.374;2023-01-26T09:33:36;12.80;;;10.30;;
2129;SDS011;1071;52.544;13.374;2023-01-26T09:36:03;13.13;;;9.77;;
2129;SDS011;1071;52.544;13.374;2023-01-26T09:38:33;11.07;;;8.02;;
2129;SDS011;1071;52.544;13.374;2023-01-26T09:41:02;12.68;;;9.32;;
2129;SDS011;1071;52.544;13.374;2023-01-26T09:43:34;13.75;;;9.35;;
2129;SDS011;1071;52.544;13.374;2023-01-26T09:46:11;12.23;;;10.88;;
2129;SDS011;1071;52.544;13.374;2023-01-26T09:48:55;13.43;;;10.63;;
2129;SDS011;1071;52.544;13.374;2023-01-26T09:51:36;14.85;;;10.57;;
2129;SDS011;1071;52.544;13.374;2023-01-26T09:54:14;15.15;;;9.20;;
2129;SDS011;1071;52.544;13.374;2023-01-26T09:57:10;13.90;;;10.05;;
2129;SDS011;1071;52.544;13.374;2023-01-26T09:59:43;18.38;;;9.02;;
2129;SDS011;1071;52.544;13.374;2023-01-26T10:02:22;12.23;;;8.38;;
2129;SDS011;1071;52.544;13.374;2023-01-26T10:05:07;11.20;;;8.88;;
2129;SDS011;1071;52.544;13.374;2023-01-26T10:07:41;15.48;;;9.80;;
2129;SDS011;1071;52.544;13.374;2023-01-26T10:10:12;18.48;;;11.52;;
2129;SDS011;1071;52.544;13.374;2023-01-26T10:12:43;11.60;;;9.18;;
2129;SDS011;1071;52.544;13.374;2023-01-26T10:15:18;12.23;;;9.13;;
2129;SDS011;1071;52.544;13.374;2023-01-26T10:17:54;13.18;;;7.60;;
2129;SDS011;1071;52.544;13.374;2023-01-26T10:20:26;11.77;;;8.57;;
2129;SDS011;1071;52.544;13.374;2023-01-26T10:23:03;15.35;;;10.50;;
2129;SDS011;1071;52.544;13.374;2023-01-26T10:25:36;17.05;;;10.88;;
2129;SDS011;1071;52.544;13.374;2023-01-26T10:28:14;10.52;;;8.70;;
2129;SDS011;1071;52.544;13.374;2023-01-26T10:30:45;12.20;;;8.38;;
2129;SDS011;1071;52.544;13.374;2023-01-26T10:33:14;11.27;;;8.48;;
2129;SDS011;1071;52.544;13.374;2023-01-26T10:35:48;12.82;;;9.13;;
2129;SDS011;1071;52.544;13.374;2023-01-26T10:41:21;11.95;;;8.50;;
2129;SDS011;1071;52.544;13.374;2023-01-26T10:43:52;13.68;;;9.25;;
2129;SDS011;1071;52.544;13.374;2023-01-26T10:46:25;17.38;;;10.68;;
2129;SDS011;1071;52.544;13.374;2023-01-26T10:48:55;13.70;;;9.68;;
2129;SDS011;1071;52.544;13.374;2023-01-26T10:51:27;11.88;;;9.35;;
2129;SDS011;1071;52.544;13.374;2023-01-26T10:56:57;13.30;;;9.73;;
2129;SDS011;1071;52.544;13.374;2023-01-26T10:59:29;13.13;;;9.48;;
2129;SDS011;1071;52.544;13.374;2023-01-26T11:02:00;13.15;;;9.90;;
2129;SDS011;1071;52.544;13.374;2023-01-26T11:04:29;9.95;;;8.75;;
2129;SDS011;1071;52.544;13.374;2023-01-26T11:09:53;9.98;;;7.65;;
2129;SDS011;1071;52.544;13.374;2023-01-26T11:12:23;10.73;;;8.38;;
2129;SDS011;1071;52.544;13.374;2023-01-26T11:14:58;9.65;;;8.40;;
2129;SDS011;1071;52.544;13.374;2023-01-26T11:17:29;11.68;;;8.68;;
2129;SDS011;1071;52.544;13.374;2023-01-26T11:20:28;9.90;;;7.93;;
2129;SDS011;1071;52.544;13.374;2023-01-26T11:23:07;11.38;;;7.72;;
2129;SDS011;1071;52.544;13.374;2023-01-26T11:25:40;9.27;;;7.00;;
2129;SDS011;1071;52.544;13.374;2023-01-26T11:28:26;10.43;;;8.55;;
2129;SDS011;1071;52.544;13.374;2023-01-26T11:31:07;10.43;;;7.30;;
2129;SDS011;1071;52.544;13.374;2023-01-26T11:33:50;7.57;;;6.80;;
2129;SDS011;1071;52.544;13.374;2023-01-26T11:36:27;9.63;;;7.15;;
2129;SDS011;1071;52.544;13.374;2023-01-26T11:39:11;11.93;;;8.00;;
2129;SDS011;1071;52.544;13.374;2023-01-26T11:41:49;10.13;;;8.15;;
2129;SDS011;1071;52.544;13.374;2023-01-26T11:47:28;7.70;;;6.47;;
2129;SDS011;1071;52.544;13.374;2023-01-26T11:50:05;8.35;;;6.07;;
2129;SDS011;1071;52.544;13.374;2023-01-26T11:52:44;8.20;;;6.40;;
2129;SDS011;1071;52.544;13.374;2023-01-26T11:55:20;9.15;;;6.60;;
2129;SDS011;1071;52.544;13.374;2023-01-26T11:57:56;5.90;;;5.00;;
2129;SDS011;1071;52.544;13.374;2023-01-26T12:00:37;5.00;;;4.50;;
2129;SDS011;1071;52.544;13.374;2023-01-26T12:03:17;6.38;;;5.28;;
2129;SDS011;1071;52.544;13.374;2023-01-26T12:05:50;8.68;;;6.07;;
2129;SDS011;1071;52.544;13.374;2023-01-26T12:08:21;8.00;;;6.53;;
2129;SDS011;1071;52.544;13.374;2023-01-26T12:10:57;8.68;;;6.50;;
2129;SDS011;1071;52.544;13.374;2023-01-26T12:13:46;7.10;;;5.82;;
2129;SDS011;1071;52.544;13.374;2023-01-26T12:16:34;6.65;;;5.65;;
2129;SDS011;1071;52.544;13.374;2023-01-26T12:19:15;10.52;;;6.88;;
2129;SDS011;1071;52.544;13.374;2023-01-26T12:21:57;6.97;;;5.80;;
2129;SDS011;1071;52.544;13.374;2023-01-26T12:24:33;6.15;;;5.50;;
2129;SDS011;1071;52.544;13.374;2023-01-26T12:27:07;6.78;;;6.13;;
2129;SDS011;1071;52.544;13.374;2023-01-26T12:29:43;8.02;;;6.93;;
2129;SDS011;1071;52.544;13.374;2023-01-26T12:32:15;8.32;;;6.78;;
2129;SDS011;1071;52.544;13.374;2023-01-26T12:34:42;9.23;;;6.70;;
2129;SDS011;1071;52.544;13.374;2023-01-26T12:37:17;12.98;;;8.50;;
2129;SDS011;1071;52.544;13.374;2023-01-26T12:40:24;14.95;;;10.32;;
2129;SDS011;1071;52.544;13.374;2023-01-26T12:43:04;12.80;;;9.40;;
2129;SDS011;1071;52.544;13.374;2023-01-26T12:45:41;11.60;;;8.88;;
2129;SDS011;1071;52.544;13.374;2023-01-26T12:48:15;9.15;;;7.53;;
2129;SDS011;1071;52.544;13.374;2023-01-26T12:50:47;8.05;;;6.28;;
2129;SDS011;1071;52.544;13.374;2023-01-26T12:53:18;9.20;;;6.85;;
2129;SDS011;1071;52.544;13.374;2023-01-26T12:55:55;7.00;;;6.30;;
2129;SDS011;1071;52.544;13.374;2023-01-26T13:01:21;8.73;;;6.30;;
2129;SDS011;1071;52.544;13.374;2023-01-26T13:03:52;9.07;;;7.45;;
2129;SDS011;1071;52.544;13.374;2023-01-26T13:06:21;7.90;;;7.20;;
2129;SDS011;1071;52.544;13.374;2023-01-26T13:08:58;6.95;;;6.25;;
2129;SDS011;1071;52.544;13.374;2023-01-26T13:11:41;6.95;;;6.25;;
2129;SDS011;1071;52.544;13.374;2023-01-26T13:14:29;11.35;;;7.55;;
2129;SDS011;1071;52.544;13.374;2023-01-26T13:20:17;18.35;;;10.18;;
2129;SDS011;1071;52.544;13.374;2023-01-26T13:22:52;12.95;;;9.80;;
2129;SDS011;1071;52.544;13.374;2023-01-26T13:25:29;8.95;;;6.90;;
2129;SDS011;1071;52.544;13.374;2023-01-26T13:28:08;14.98;;;9.57;;
2129;SDS011;1071;52.544;13.374;2023-01-26T13:30:43;13.95;;;10.15;;
2129;SDS011;1071;52.544;13.374;2023-01-26T13:33:15;12.07;;;8.68;;
2129;SDS011;1071;52.544;13.374;2023-01-26T13:35:47;11.90;;;8.30;;
2129;SDS011;1071;52.544;13.374;2023-01-26T13:38:21;9.63;;;7.82;;
2129;SDS011;1071;52.544;13.374;2023-01-26T13:40:56;7.63;;;6.82;;
2129;SDS011;1071;52.544;13.374;2023-01-26T13:43:27;10.02;;;7.40;;
2129;SDS011;1071;52.544;13.374;2023-01-26T13:46:05;12.18;;;9.25;;
2129;SDS011;1071;52.544;13.374;2023-01-26T13:48:40;10.15;;;8.82;;
2129;SDS011;1071;52.544;13.374;2023-01-26T13:51:11;9.30;;;8.35;;
2129;SDS011;1071;52.544;13.374;2023-01-26T13:53:43;11.93;;;9.02;;
2129;SDS011;1071;52.544;13.374;2023-01-26T13:56:26;13.70;;;8.30;;
2129;SDS011;1071;52.544;13.374;2023-01-26T13:59:06;13.93;;;9.27;;
2129;SDS011;1071;52.544;13.374;2023-01-26T14:01:41;11.00;;;8.85;;
2129;SDS011;1071;52.544;13.374;2023-01-26T14:04:11;11.23;;;10.02;;
2129;SDS011;1071;52.544;13.374;2023-01-26T14:06:45;13.57;;;9.88;;
2129;SDS011;1071;52.544;13.374;2023-01-26T14:09:15;13.25;;;10.63;;
2129;SDS011;1071;52.544;13.374;2023-01-26T14:11:42;13.75;;;9.88;;
2129;SDS011;1071;52.544;13.374;2023-01-26T14:14:16;11.93;;;8.55;;
2129;SDS011;1071;52.544;13.374;2023-01-26T14:16:49;12.95;;;9.38;;
2129;SDS011;1071;52.544;13.374;2023-01-26T14:19:18;11.52;;;8.07;;
2129;SDS011;1071;52.544;13.374;2023-01-26T14:21:47;10.65;;;8.52;;
2129;SDS011;1071;52.544;13.374;2023-01-26T14:24:16;9.90;;;7.55;;
2129;SDS011;1071;52.544;13.374;2023-01-26T14:26:52;10.57;;;8.55;;
2129;SDS011;1071;52.544;13.374;2023-01-26T14:29:20;12.95;;;9.00;;
2129;SDS011;1071;52.544;13.374;2023-01-26T14:31:51;11.23;;;8.18;;
2129;SDS011;1071;52.544;13.374;2023-01-26T14:34:25;16.00;;;10.45;;
2129;SDS011;1071;52.544;13.374;2023-01-26T14:37:09;12.15;;;9.27;;
2129;SDS011;1071;52.544;13.374;2023-01-26T14:42:53;14.02;;;9.63;;
2129;SDS011;1071;52.544;13.374;2023-01-26T14:45:42;10.30;;;7.93;;
2129;SDS011;1071;52.544;13.374;2023-01-26T14:48:21;13.25;;;9.50;;
2129;SDS011;1071;52.544;13.374;2023-01-26T14:54:17;16.60;;;10.18;;
2129;SDS011;1071;52.544;13.374;2023-01-26T14:57:15;14.38;;;12.57;;
2129;SDS011;1071;52.544;13.374;2023-01-26T14:59:52;15.82;;;10.57;;
2129;SDS011;1071;52.544;13.374;2023-01-26T15:02:21;16.08;;;11.13;;
2129;SDS011;1071;52.544;13.374;2023-01-26T15:04:53;13.93;;;9.73;;
2129;SDS011;1071;52.544;13.374;2023-01-26T15:07:33;17.70;;;12.25;;
2129;SDS011;1071;52.544;13.374;2023-01-26T15:10:03;18.52;;;13.57;;
2129;SDS011;1071;52.544;13.374;2023-01-26T15:12:45;16.58;;;12.90;;
2129;SDS011;1071;52.544;13.374;2023-01-26T15:15:20;18.95;;;14.20;;
2129;SDS011;1071;52.544;13.374;2023-01-26T15:18:14;20.27;;;14.05;;
2129;SDS011;1071;52.544;13.374;2023-01-26T15:20:45;17.52;;;13.45;;
2129;SDS011;1071;52.544;13.374;2023-01-26T15:23:29;18.10;;;12.50;;
2129;SDS011;1071;52.544;13.374;2023-01-26T15:26:04;17.38;;;13.30;;
2129;SDS011;1071;52.544;13.374;2023-01-26T15:28:33;17.90;;;12.00;;
2129;SDS011;1071;52.544;13.374;2023-01-26T15:31:01;16.90;;;12.10;;
2129;SDS011;1071;52.544;13.374;2023-01-26T15:36:31;17.45;;;12.35;;
2129;SDS011;1071;52.544;13.374;2023-01-26T15:39:00;20.10;;;13.73;;
2129;SDS011;1071;52.544;13.374;2023-01-26T15:41:30;16.92;;;12.27;;
2129;SDS011;1071;52.544;13.374;2023-01-26T15:44:00;16.90;;;11.77;;
2129;SDS011;1071;52.544;13.374;2023-01-26T15:46:28;24.55;;;14.80;;
2129;SDS011;1071;52.544;13.374;2023-01-26T15:48:55;20.52;;;14.57;;
2129;SDS011;1071;52.544;13.374;2023-01-26T15:51:26;22.20;;;15.00;;
2129;SDS011;1071;52.544;13.374;2023-01-26T15:53:56;19.85;;;12.95;;
2129;SDS011;1071;52.544;13.374;2023-01-26T15:56:23;17.55;;;11.55;;